Terminal Aerodrome Forecast
Issued by NWS Binghamton, NY

Home | Current Version | Previous Version | Text Only | Print | Product List | Glossary On
Versions: 1 2 3 4 5 6 7 8 9 10 11 12 13 14 15 16 17
000
FTUS41 KBGM 260844 AAA
TAFSYR
TAF AMD
KSYR 260844Z 2609/2706 23010KT P6SM BKN050 OVC100
     FM261400 25011KT P6SM BKN050 OVC100
     FM261900 20010KT P6SM BKN050 OVC100=

USA.gov is the U.S. government's official web portal to all federal, state and local government web resources and services.